Data for 11/10/2015

Time Sea-Level Adjusted Pressure Absolute Pressure Temperature Relative Humidity Dew Point   
(mb) (inHg) (mb) (inHg) (C) (F) (%) (C) (F)
00:05 1011 29.85 840 24.81 1.8 35.2 71 -3 26.6
00:10 1011 29.85 840 24.81 1.8 35.2 71 -2.9 26.8
00:15 1011 29.85 840 24.81 1.7 35.1 72 -2.9 26.8
00:20 1011 29.85 840 24.81 1.7 35 72 -2.8 26.9
00:25 1011 29.85 840 24.81 1.5 34.6 74 -2.7 27.1
00:30 1011 29.85 840 24.81 1.2 34.2 76 -2.6 27.4
00:35 1011 29.85 841 24.83 1 33.8 78 -2.4 27.6
00:40 1011 29.85 840 24.81 0.8 33.4 81 -2.1 28.2
00:45 1011 29.85 841 24.83 0.6 33.1 82 -2.1 28.2
00:50 1011 29.85 841 24.83 0.5 32.8 83 -2.1 28.3
00:55 1012 29.88 841 24.83 0.4 32.7 84 -2 28.4
01:00 1012 29.88 841 24.83 0.3 32.6 84 -2 28.4
01:05 1012 29.88 841 24.83 0.3 32.6 84 -2 28.4
01:10 1012 29.88 841 24.83 0.3 32.6 84 -2 28.4
01:15 1011 29.85 841 24.83 0.3 32.5 85 -2 28.4
01:20 1011 29.85 841 24.83 0.2 32.4 85 -2 28.4
01:25 1011 29.85 841 24.83 0.1 32.2 86 -2 28.5
01:30 1012 29.88 841 24.83 -0 32 87 -1.9 28.5
01:35 1012 29.88 841 24.83 -0.1 31.9 87 -2 28.5
01:40 1012 29.88 841 24.83 -0.1 31.8 87 -2 28.4
01:45 1012 29.88 841 24.83 -0.1 31.8 87 -1.9 28.5
01:50 1012 29.88 841 24.83 -0.1 31.7 88 -2 28.5
01:55 1012 29.88 841 24.83 -0.1 31.8 87 -2 28.4
02:00 1012 29.88 841 24.83 -0.2 31.6 88 -2 28.5
02:05 1012 29.88 841 24.83 -0.5 31.2 89 -2 28.3
02:10 1012 29.88 841 24.83 -0.5 31.1 89 -2 28.3
02:15 1012 29.88 841 24.83 -0.5 31 89 -2.1 28.2
02:20 1012 29.88 841 24.83 -0.6 31 89 -2.1 28.2
02:25 1012 29.88 841 24.83 -0.5 31 89 -2.1 28.3
02:30 1012 29.88 842 24.86 -0.5 31.1 89 -2.1 28.3
02:35 1012 29.88 842 24.86 -0.5 31.1 89 -2 28.4
02:40 1012 29.88 842 24.86 -0.4 31.3 89 -2 28.4
02:45 1012 29.88 842 24.86 -0.3 31.4 89 -2 28.5
02:50 1012 29.88 842 24.86 -0.3 31.4 89 -1.9 28.6
02:55 1012 29.88 842 24.86 -0.3 31.4 90 -1.8 28.8
03:00 1012 29.88 842 24.86 -0.5 31.2 91 -1.7 28.9
03:05 1012 29.88 842 24.86 -0.5 31.1 92 -1.7 28.9
03:10 1012 29.88 842 24.86 -0.5 31.2 92 -1.6 29.1
03:15 1012 29.88 842 24.86 -0.4 31.3 92 -1.5 29.3
03:20 1013 29.91 842 24.86 -0.3 31.4 92 -1.5 29.4
03:25 1013 29.91 842 24.86 -0.3 31.4 92 -1.5 29.4
03:30 1013 29.91 842 24.86 -0.4 31.3 92 -1.5 29.3
03:35 1013 29.91 842 24.86 -0.4 31.3 92 -1.5 29.3
03:40 1013 29.91 842 24.86 -0.5 31.2 92 -1.6 29.1
03:45 1013 29.91 842 24.86 -0.6 30.8 92 -1.7 28.9
03:50 1013 29.91 842 24.86 -0.7 30.8 92 -1.8 28.8
03:55 1013 29.91 842 24.86 -0.7 30.7 92 -1.8 28.7
04:00 1013 29.91 842 24.86 -0.8 30.6 93 -1.8 28.7
04:05 1013 29.91 842 24.86 -0.8 30.5 93 -1.9 28.6
04:10 1013 29.91 842 24.86 -1 30.2 92 -2.1 28.3
04:15 1013 29.91 842 24.86 -0.9 30.3 92 -2 28.4
04:20 1013 29.91 842 24.86 -0.9 30.3 92 -2.1 28.3
04:25 1013 29.91 842 24.86 -1 30.2 92 -2.2 28
04:30 1013 29.91 842 24.86 -1.1 30 92 -2.3 27.9
04:35 1013 29.91 842 24.86 -1.2 29.9 92 -2.3 27.8
04:40 1013 29.91 842 24.86 -1.2 29.9 92 -2.3 27.8
04:45 1013 29.91 842 24.86 -1.2 29.9 92 -2.3 27.8
04:50 1013 29.91 842 24.86 -1.2 29.8 92 -2.4 27.6
04:55 1013 29.91 842 24.86 -1.4 29.5 92 -2.5 27.6
05:00 1013 29.91 842 24.86 -1.4 29.5 92 -2.5 27.5
05:05 1013 29.91 842 24.86 -1.4 29.5 92 -2.5 27.5
05:10 1013 29.91 842 24.86 -1.5 29.3 93 -2.5 27.5
05:15 1013 29.91 842 24.86 -1.4 29.5 92 -2.5 27.6
05:20 1013 29.91 842 24.86 -1.4 29.5 92 -2.5 27.4
05:25 1013 29.91 842 24.86 -1.3 29.6 92 -2.4 27.6
05:30 1013 29.91 842 24.86 -1.3 29.7 92 -2.4 27.6
05:35 1013 29.91 843 24.89 -1.3 29.7 92 -2.4 27.7
05:40 1013 29.91 843 24.89 -1.3 29.6 92 -2.5 27.6
05:45 1013 29.91 843 24.89 -1.5 29.3 93 -2.6 27.4
05:50 1013 29.91 843 24.89 -1.6 29.1 93 -2.6 27.3
05:55 1013 29.91 843 24.89 -1.6 29.1 93 -2.5 27.4
06:00 1013 29.91 843 24.89 -1.6 29.2 94 -2.5 27.5
06:05 1014 29.94 843 24.89 -1.5 29.2 94 -2.4 27.6
06:10 1014 29.94 843 24.89 -1.5 29.2 94 -2.5 27.6
06:15 1014 29.94 843 24.89 -1.5 29.2 94 -2.4 27.6
06:20 1014 29.94 843 24.89 -1.5 29.4 94 -2.4 27.7
06:25 1014 29.94 843 24.89 -1.4 29.4 93 -2.4 27.7
06:30 1014 29.94 843 24.89 -1.5 29.3 93 -2.6 27.4
06:35 1014 29.94 843 24.89 -1.6 29.1 92 -2.7 27.1
06:40 1014 29.94 843 24.89 -1.6 29.1 92 -2.8 27
06:45 1014 29.94 843 24.89 -1.6 29.1 92 -2.8 27
06:50 1014 29.94 843 24.89 -1.6 29.1 91 -2.8 26.9
06:55 1014 29.94 843 24.89 -1.6 29.2 91 -2.8 27
07:00 1014 29.94 843 24.89 -1.5 29.2 91 -2.8 27
07:05 1014 29.94 843 24.89 -1.6 29.1 91 -2.9 26.8
07:10 1014 29.94 843 24.89 -1.6 29.1 91 -2.9 26.8
07:15 1014 29.94 843 24.89 -1.7 28.9 92 -2.9 26.8
07:20 1014 29.94 843 24.89 -1.7 28.9 92 -2.9 26.8
07:25 1014 29.94 843 24.89 -1.7 28.9 91 -2.9 26.8
07:30 1014 29.94 843 24.89 -1.7 28.9 92 -2.9 26.8
07:35 1014 29.94 843 24.89 -1.6 29.1 91 -2.9 26.9
07:40 1014 29.94 844 24.92 -1.6 29.1 91 -2.9 26.8
07:45 1014 29.94 844 24.92 -1.6 29.1 91 -2.9 26.8
07:50 1014 29.94 844 24.92 -1.6 29.2 91 -2.8 26.9
07:55 1014 29.94 844 24.92 -1.5 29.3 91 -2.8 26.9
08:00 1015 29.97 844 24.92 -1.5 29.3 91 -2.8 27
08:05 1015 29.97 844 24.92 -1.5 29.4 91 -2.7 27.1
08:10 1015 29.97 844 24.92 -1.4 29.5 91 -2.7 27.2
08:15 1015 29.97 844 24.92 -1.4 29.5 91 -2.6 27.2
08:20 1015 29.97 844 24.92 -1.4 29.6 91 -2.7 27.2
08:25 1015 29.97 844 24.92 -1.4 29.5 90 -2.8 26.9
08:30 1015 29.97 844 24.92 -1.5 29.3 90 -3 26.6
08:35 1015 29.97 844 24.92 -1.6 29.1 90 -3 26.6
08:40 1015 29.97 844 24.92 -1.6 29.1 90 -3 26.5
08:45 1015 29.97 844 24.92 -1.7 28.9 90 -3.1 26.4
08:50 1015 29.97 844 24.92 -1.8 28.7 90 -3.2 26.2
08:55 1015 29.97 844 24.92 -1.9 28.7 91 -3.2 26.3
09:00 1015 29.97 844 24.92 -1.9 28.6 90 -3.3 26.1
09:05 1015 29.97 845 24.95 -1.9 28.5 90 -3.3 26
09:10 1015 29.97 845 24.95 -2.1 28.2 90 -3.5 25.7
09:15 1015 29.97 845 24.95 -2.3 27.9 91 -3.5 25.7
09:20 1015 29.97 845 24.95 -2.3 27.8 92 -3.5 25.8
09:25 1016 30 845 24.95 -2.3 27.8 92 -3.5 25.7
09:30 1016 30 845 24.95 -2.3 27.8 92 -3.5 25.7
09:35 1016 30 845 24.95 -2.3 27.9 92 -3.4 25.9
09:40 1016 30 845 24.95 -2.2 28.1 92 -3.4 25.9
09:45 1016 30 845 24.95 -2.2 28 91 -3.5 25.8
09:50 1016 30 845 24.95 -2.3 27.9 91 -3.5 25.7
09:55 1016 30 845 24.95 -2.3 27.8 92 -3.5 25.7
10:00 1016 30 845 24.95 -2.3 27.8 92 -3.5 25.7
10:05 1016 30 845 24.95 -2.4 27.8 92 -3.5 25.6
10:10 1016 30 845 24.95 -2.4 27.7 92 -3.6 25.6
10:15 1016 30 845 24.95 -2.4 27.7 92 -3.6 25.6
10:20 1016 30 845 24.95 -2.4 27.7 92 -3.5 25.6
10:25 1016 30 845 24.95 -2.3 27.9 92 -3.4 25.8
10:30 1016 30 845 24.95 -2.2 28 91 -3.5 25.7
10:35 1016 30 845 24.95 -2.4 27.7 92 -3.5 25.7
10:40 1016 30 846 24.98 -2.2 28.1 92 -3.4 25.9
10:45 1016 30 846 24.98 -2.2 28 91 -3.5 25.7
10:50 1016 30 846 24.98 -2.2 28 91 -3.4 25.8
10:55 1016 30 846 24.98 -2.2 28.1 91 -3.5 25.8
11:00 1016 30 846 24.98 -2.3 27.8 92 -3.5 25.7
11:05 1016 30 846 24.98 -2.1 28.2 92 -3.3 26.1
11:10 1016 30 846 24.98 -2 28.4 91 -3.3 26.1
11:15 1016 30 846 24.98 -2 28.3 91 -3.4 25.9
11:20 1017 30.03 846 24.98 -2.1 28.2 91 -3.4 25.8
11:25 1017 30.03 846 24.98 -2.2 28 90 -3.6 25.6
11:30 1017 30.03 846 24.98 -2.2 28 91 -3.6 25.6
11:35 1017 30.03 846 24.98 -2.3 27.9 91 -3.6 25.6
11:40 1017 30.03 846 24.98 -2.3 27.9 91 -3.5 25.6
11:45 1017 30.03 846 24.98 -2.1 28.2 91 -3.4 25.8
11:50 1017 30.03 846 24.98 -2.1 28.3 89 -3.6 25.5
11:55 1017 30.03 846 24.98 -2.1 28.2 90 -3.6 25.5
12:00 1017 30.03 846 24.98 -2.1 28.3 90 -3.5 25.7
12:05 1017 30.03 846 24.98 -2 28.4 89 -3.6 25.6
12:10 1017 30.03 846 24.98 -2.1 28.2 89 -3.6 25.5
12:15 1017 30.03 846 24.98 -2 28.4 90 -3.4 25.9
12:20 1017 30.03 846 24.98 -1.9 28.6 89 -3.4 25.9
12:25 1017 30.03 846 24.98 -1.9 28.6 89 -3.4 25.8
12:30 1017 30.03 846 24.98 -1.9 28.6 89 -3.4 25.9
12:35 1017 30.03 846 24.98 -1.7 28.9 90 -3.2 26.2
12:40 1017 30.03 846 24.98 -1.7 29 89 -3.2 26.2
12:45 1017 30.03 846 24.98 -1.8 28.8 89 -3.3 26
12:50 1017 30.03 846 24.98 -1.6 29 88 -3.4 25.8
12:55 1017 30.03 846 24.98 -1.6 29.1 88 -3.4 25.9
13:00 1017 30.03 846 24.98 -1.5 29.3 88 -3.3 26.1
13:05 1017 30.03 846 24.98 -1.4 29.5 87 -3.2 26.2
13:10 1017 30.03 846 24.98 -1 30.2 87 -2.8 26.9
13:15 1017 30.03 846 24.98 -0.8 30.5 86 -2.8 26.9
13:20 1017 30.03 846 24.98 -0.9 30.3 86 -3 26.6
13:25 1017 30.03 846 24.98 -0.9 30.4 85 -3.1 26.4
13:30 1017 30.03 846 24.98 -0.8 30.6 84 -3.2 26.3
13:35 1017 30.03 846 24.98 -0.8 30.6 84 -3.1 26.4
13:40 1016 30 846 24.98 -0.8 30.5 84 -3.2 26.2
13:45 1016 30 846 24.98 -1 30.2 85 -3.3 26.1
13:50 1016 30 846 24.98 -1 30.1 84 -3.4 26
13:55 1016 30 846 24.98 -1 30.1 85 -3.2 26.2
14:00 1016 30 846 24.98 -0.9 30.5 83 -3.4 25.9
14:05 1016 30 846 24.98 -0.8 30.6 84 -3.1 26.5
14:10 1016 30 846 24.98 -0.5 31.2 83 -2.9 26.7
14:15 1016 30 846 24.98 -0.3 31.5 83 -2.9 26.9
14:20 1016 30 846 24.98 -0.3 31.5 82 -3 26.6
14:25 1016 30 846 24.98 -0.5 31.1 84 -2.9 26.8
14:30 1016 30 846 24.98 -0.5 31.1 83 -3.1 26.5
14:35 1016 30 846 24.98 -0.6 30.9 83 -3.2 26.3
14:40 1016 30 846 24.98 -0.8 30.5 83 -3.4 25.9
14:45 1016 30 846 24.98 -1 30.2 83 -3.5 25.7
14:50 1016 30 846 24.98 -1.2 29.9 85 -3.4 25.9
14:55 1016 30 846 24.98 -1.2 29.9 85 -3.4 25.9
15:00 1016 30 846 24.98 -0.9 30.4 82 -3.5 25.7
15:05 1016 30 846 24.98 -0.6 30.9 82 -3.4 26
15:10 1016 30 846 24.98 -1.2 29.9 84 -3.5 25.7
15:15 1016 30 846 24.98 -1.4 29.5 86 -3.4 25.8
15:20 1016 30 846 24.98 -1.3 29.7 86 -3.3 26
15:25 1016 30 846 24.98 -1.1 30 85 -3.3 26
15:30 1016 30 846 24.98 -0.9 30.3 84 -3.3 26.1
15:35 1016 30 846 24.98 -0.8 30.5 83 -3.3 26
15:40 1016 30 846 24.98 -0.7 30.7 84 -3.1 26.4
15:45 1016 30 846 24.98 -0.6 30.9 83 -3.1 26.4
15:50 1016 30 846 24.98 -0.5 31 83 -3 26.5
15:55 1016 30 846 24.98 -0.5 31.2 82 -3.2 26.3
16:00 1016 30 846 24.98 -0.4 31.2 81 -3.2 26.2
16:05 1016 30 846 24.98 -0.5 31.1 81 -3.3 26.1
16:10 1016 30 846 24.98 -0.5 31.1 82 -3.3 26.1
16:15 1016 30 846 24.98 -0.6 30.9 83 -3.1 26.4
16:20 1016 30 846 24.98 -0.6 31 82 -3.2 26.2
16:25 1016 30 846 24.98 -0.5 31 82 -3.2 26.2
16:30 1016 30 846 24.98 -0.4 31.2 82 -3.2 26.3
16:35 1016 30 846 24.98 -0.3 31.4 82 -3 26.6
16:40 1017 30.03 846 24.98 -0.3 31.5 82 -2.9 26.7
16:45 1017 30.03 846 24.98 -0.3 31.4 82 -3 26.7
16:50 1017 30.03 846 24.98 -0.3 31.4 83 -3 26.7
16:55 1017 30.03 846 24.98 -0.5 31.1 83 -3 26.6
17:00 1017 30.03 846 24.98 -0.5 31.1 84 -2.9 26.8
17:05 1017 30.03 846 24.98 -0.8 30.5 86 -2.9 26.8
17:10 1017 30.03 846 24.98 -0.9 30.3 86 -3 26.6
17:15 1017 30.03 846 24.98 -1 30.2 86 -3 26.6
17:20 1017 30.03 846 24.98 -1 30.3 86 -3 26.6
17:25 1017 30.03 846 24.98 -1 30.2 86 -3 26.6
17:30 1017 30.03 846 24.98 -1 30.2 86 -3.1 26.5
17:35 1017 30.03 846 24.98 -1.2 29.9 87 -3 26.6
17:40 1017 30.03 846 24.98 -1.4 29.5 88 -3.2 26.3
17:45 1017 30.03 846 24.98 -1.3 29.7 87 -3.2 26.3
17:50 1017 30.03 846 24.98 -1.3 29.6 86 -3.5 25.8
17:55 1017 30.03 846 24.98 -1.4 29.4 86 -3.4 25.8
18:00 1017 30.03 846 24.98 -1.4 29.5 87 -3.4 26
18:05 1017 30.03 846 24.98 -1.3 29.6 86 -3.3 26
18:10 1017 30.03 846 24.98 -1.3 29.7 86 -3.3 26
18:15 1017 30.03 846 24.98 -1.5 29.3 88 -3.3 26.1
18:20 1017 30.03 846 24.98 -1.5 29.3 87 -3.4 25.9
18:25 1017 30.03 846 24.98 -1.7 28.9 88 -3.5 25.8
18:30 1017 30.03 846 24.98 -1.8 28.8 88 -3.4 25.8
18:35 1017 30.03 846 24.98 -1.6 29.1 88 -3.4 26
18:40 1017 30.03 846 24.98 -1.5 29.4 87 -3.3 26.1
18:45 1017 30.03 846 24.98 -1.4 29.4 88 -3.2 26.2
18:50 1017 30.03 846 24.98 -1.4 29.5 87 -3.2 26.2
18:55 1017 30.03 846 24.98 -1.5 29.4 87 -3.3 26
19:00 1017 30.03 846 24.98 -1.5 29.4 86 -3.5 25.8
19:05 1017 30.03 846 24.98 -1.4 29.6 87 -3.3 26.1
19:10 1017 30.03 846 24.98 -1.2 29.8 86 -3.3 26
19:15 1017 30.03 846 24.98 -1.2 29.8 84 -3.5 25.6
19:20 1017 30.03 846 24.98 -1.2 29.9 84 -3.6 25.6
19:25 1017 30.03 846 24.98 -1.1 30.1 84 -3.5 25.7
19:30 1017 30.03 846 24.98 -1 30.2 82 -3.6 25.4
19:35 1017 30.03 846 24.98 -0.9 30.4 81 -3.7 25.4
19:40 1017 30.03 846 24.98 -0.8 30.5 81 -3.7 25.4
19:45 1017 30.03 846 24.98 -0.8 30.6 81 -3.6 25.5
19:50 1017 30.03 846 24.98 -0.8 30.6 81 -3.7 25.4
19:55 1017 30.03 846 24.98 -0.7 30.7 80 -3.7 25.3
20:00 1017 30.03 846 24.98 -0.8 30.6 80 -3.9 25
20:05 1017 30.03 846 24.98 -0.8 30.5 80 -3.9 25.1
20:10 1017 30.03 846 24.98 -0.9 30.4 80 -3.9 25
20:15 1017 30.03 846 24.98 -1 30.1 80 -4 24.8
20:20 1017 30.03 846 24.98 -1.2 29.9 81 -4 24.8
20:25 1017 30.03 846 24.98 -1.3 29.6 82 -4.1 24.7
20:30 1017 30.03 846 24.98 -1.5 29.4 83 -4 24.7
20:35 1017 30.03 846 24.98 -1.6 29 84 -4 24.8
20:40 1017 30.03 846 24.98 -1.8 28.7 85 -4 24.8
20:45 1017 30.03 846 24.98 -1.9 28.6 85 -4.1 24.6
20:50 1017 30.03 846 24.98 -1.9 28.6 85 -4.1 24.5
20:55 1017 30.03 846 24.98 -1.9 28.5 83 -4.5 23.9
21:00 1017 30.03 846 24.98 -1.9 28.6 77 -5.4 22.3
21:05 1017 30.03 846 24.98 -2 28.3 76 -5.7 21.8
21:10 1017 30.03 846 24.98 -2.3 27.9 74 -6.2 20.8
21:15 1017 30.03 846 24.98 -2.2 28 73 -6.5 20.3
21:20 1017 30.03 846 24.98 -2.1 28.2 73 -6.4 20.5
21:25 1017 30.03 846 24.98 -2 28.5 71 -6.5 20.4
21:30 1017 30.03 846 24.98 -2.2 28.1 72 -6.5 20.2
21:35 1017 30.03 846 24.98 -2.5 27.5 72 -6.8 19.7
21:40 1017 30.03 846 24.98 -2.6 27.3 72 -7 19.4
21:45 1017 30.03 846 24.98 -2.6 27.2 72 -7.1 19.2
21:50 1017 30.03 846 24.98 -2.6 27.3 72 -7 19.5
21:55 1017 30.03 846 24.98 -2.6 27.3 72 -6.9 19.5
22:00 1017 30.03 846 24.98 -2.6 27.3 72 -7.1 19.3
22:05 1017 30.03 846 24.98 -2.5 27.5 72 -7 19.5
22:10 1017 30.03 846 24.98 -2.4 27.6 73 -6.7 20
22:15 1017 30.03 846 24.98 -2.5 27.5 73 -6.7 20
22:20 1017 30.03 846 24.98 -2.7 27.2 72 -7 19.4
22:25 1017 30.03 846 24.98 -2.7 27.1 72 -7.1 19.2
22:30 1017 30.03 846 24.98 -2.8 27 72 -7.2 19.1
22:35 1017 30.03 846 24.98 -2.7 27.2 71 -7.2 19.1
22:40 1017 30.03 846 24.98 -2.7 27.2 71 -7.3 18.9
22:45 1017 30.03 846 24.98 -2.6 27.2 70 -7.4 18.6
22:50 1017 30.03 846 24.98 -2.7 27.2 70 -7.4 18.7
22:55 1017 30.03 846 24.98 -2.7 27.1 71 -7.3 18.9
23:00 1017 30.03 846 24.98 -2.7 27.1 71 -7.2 19
23:05 1017 30.03 846 24.98 -2.7 27.1 72 -7.1 19.2
23:10 1017 30.03 846 24.98 -2.9 26.8 72 -7.2 19.1
23:15 1017 30.03 846 24.98 -3 26.7 72 -7.3 18.9
23:20 1017 30.03 846 24.98 -3 26.6 73 -7.2 19
23:25 1017 30.03 846 24.98 -3 26.5 74 -7 19.3
23:30 1017 30.03 846 24.98 -3 26.7 73 -7.1 19.2
23:35 1017 30.03 846 24.98 -3.1 26.4 74 -7.1 19.2
23:40 1017 30.03 846 24.98 -3.4 26 75 -7.1 19.1
23:45 1017 30.03 846 24.98 -3.4 25.8 77 -6.9 19.5
23:50 1017 30.03 846 24.98 -3.4 26 76 -6.9 19.5
23:55 1017 30.03 846 24.98 -3.2 26.2 76 -6.8 19.8
24:00 1017 30.03 846 24.98 -3.1 26.4 76 -6.7 19.9